»·PEaware :: DAL3625 KATL-KDEN

DAL3625 :: KATL-KDEN

FLIGHT INFORMATION

Flight Status: Arrived
Operator:
Delta Air Lines
More flights by this operator :: More flights under this callsign
Pilot: Jorge C. (29326)
Aircraft: AIRBUS A320
(A320)
More flights by this aircraft type
Origin: KATL Hartsfield-Jackson Atlanta
United States
Destination: KDEN Denver Intl
United States
More flights between these airports :: More routes between these airports
Route: CUTTN2 HANKO DCT MEM DCT RZC DCT BVO DCT GCK DCT KIISS CLASH1
File this flight plan on PilotEdge
Remarks:
Altitude:
(Current/Filed)
36,000ft
Speed:
(Current/Filed)
400kts
Departed: 02-Jun-20 06:14 AM
Arrived: 02-Jun-20 08:57 AM
Distance/Time
Traveled:
1038nm/2:43
Distance/Time
To Go:
Arrived

Flight Plot

Page will automatically refresh every two minutes.

Flight plan parsing failed; only flown route is shown


Map Options




Map Legend


Flown Route
Filed Route
Departure Airport
Arrival Airport
Navaid (VOR, NDB)
Fix

Horizontal Profiles

Position Reports

Time Latitude Longitude Heading Altitude Ground
Speed
02-Jun-20 06:10 33.635835 -84.413691 90 964ft 9kts
02-Jun-20 06:11 33.635827 -84.410078 90 961ft 13kts
02-Jun-20 06:12 33.634784 -84.409342 239 958ft 3kts
02-Jun-20 06:13 33.634596 -84.439344 268 1420ft 187kts
02-Jun-20 06:14 33.634513 -84.511251 269 4389ft 246kts
02-Jun-20 06:15 33.634588 -84.596803 269 7567ft 262kts
02-Jun-20 06:16 33.634568 -84.686836 270 10505ft 281kts
02-Jun-20 06:17 33.657461 -84.787546 294 11885ft 355kts
02-Jun-20 06:18 33.701990 -84.901255 294 13718ft 386kts
02-Jun-20 06:19 33.748120 -85.019721 294 15890ft 396kts
02-Jun-20 06:20 33.795356 -85.141485 294 17850ft 405kts
02-Jun-20 06:21 33.822072 -85.273359 273 19565ft 413kts
02-Jun-20 06:22 33.828224 -85.413044 273 21119ft 422kts
02-Jun-20 06:23 33.834424 -85.554638 273 22513ft 429kts
02-Jun-20 06:24 33.852515 -85.696714 288 23768ft 437kts
02-Jun-20 06:25 33.893288 -85.836332 288 24855ft 446kts
02-Jun-20 06:26 33.934488 -85.979065 289 25804ft 455kts
02-Jun-20 06:27 33.976674 -86.124702 289 26638ft 464kts
02-Jun-20 06:28 34.019204 -86.272458 289 27615ft 466kts
02-Jun-20 06:29 34.061414 -86.419952 289 28643ft 466kts
02-Jun-20 06:30 34.103500 -86.567809 290 29691ft 466kts
02-Jun-20 06:31 34.145298 -86.715422 289 30849ft 462kts
02-Jun-20 06:32 34.186586 -86.862021 289 32020ft 458kts
02-Jun-20 06:33 34.227381 -87.007635 288 33074ft 455kts
02-Jun-20 06:34 34.267624 -87.152004 288 34034ft 451kts
02-Jun-20 06:35 34.307399 -87.295434 288 35011ft 446kts
02-Jun-20 06:36 34.346444 -87.436966 288 35830ft 442kts
02-Jun-20 06:37 34.385141 -87.577947 288 35854ft 440kts
02-Jun-20 06:38 34.423713 -87.719197 288 35855ft 441kts
02-Jun-20 06:39 34.462098 -87.860485 288 35853ft 441kts
02-Jun-20 06:40 34.500261 -88.001658 288 35834ft 441kts
02-Jun-20 06:41 34.538400 -88.143504 287 35828ft 440kts
02-Jun-20 06:42 34.576177 -88.284740 287 35830ft 439kts
02-Jun-20 06:43 34.613651 -88.425583 287 35822ft 439kts
02-Jun-20 06:44 34.651068 -88.566936 287 35827ft 438kts
02-Jun-20 06:45 34.687345 -88.704708 287 35826ft 438kts
02-Jun-20 06:46 34.724305 -88.845807 287 35833ft 438kts
02-Jun-20 06:47 34.761215 -88.987468 287 35823ft 437kts
02-Jun-20 06:48 34.797669 -89.128125 287 35802ft 436kts
02-Jun-20 06:49 34.834049 -89.269248 287 35788ft 436kts
02-Jun-20 06:50 34.870192 -89.410204 286 35782ft 435kts
02-Jun-20 06:51 34.906165 -89.551259 286 35776ft 435kts
02-Jun-20 06:52 34.941771 -89.691629 286 35784ft 435kts
02-Jun-20 06:53 34.977352 -89.832667 286 35784ft 435kts
02-Jun-20 06:54 35.012939 -89.973887 287 35783ft 435kts
02-Jun-20 06:55 35.056165 -90.111978 290 35787ft 434kts
02-Jun-20 06:56 35.099823 -90.249593 290 35761ft 432kts
02-Jun-20 06:57 35.143109 -90.386663 290 35750ft 432kts
02-Jun-20 06:58 35.186300 -90.524062 289 35758ft 431kts
02-Jun-20 06:59 35.229206 -90.661194 289 35906ft 432kts
02-Jun-20 07:00 35.271964 -90.798484 289 36056ft 429kts
02-Jun-20 07:01 35.314410 -90.935419 289 36058ft 429kts
02-Jun-20 07:02 35.356618 -91.072227 289 36062ft 429kts
02-Jun-20 07:03 35.398683 -91.209214 289 36057ft 428kts
02-Jun-20 07:04 35.440577 -91.346292 288 36046ft 427kts
02-Jun-20 07:05 35.482070 -91.482695 288 36034ft 426kts
02-Jun-20 07:06 35.523517 -91.619602 288 36025ft 426kts
02-Jun-20 07:07 35.564642 -91.756090 288 36034ft 426kts
02-Jun-20 07:08 35.605503 -91.892353 288 36035ft 425kts
02-Jun-20 07:09 35.646241 -92.028858 287 36041ft 424kts
02-Jun-20 07:10 35.686739 -92.165208 287 36045ft 424kts
02-Jun-20 07:11 35.727039 -92.301552 288 36042ft 424kts
02-Jun-20 07:12 35.767164 -92.437962 288 36044ft 423kts
02-Jun-20 07:13 35.807166 -92.574613 288 36046ft 423kts
02-Jun-20 07:14 35.846967 -92.711238 287 36050ft 424kts
02-Jun-20 07:15 35.886680 -92.848243 287 36055ft 423kts
02-Jun-20 07:16 35.926142 -92.985043 287 36046ft 423kts
02-Jun-20 07:17 35.965507 -93.122189 287 36049ft 422kts
02-Jun-20 07:18 36.004493 -93.258682 286 36049ft 421kts
02-Jun-20 07:19 36.043037 -93.394309 286 36047ft 417kts
02-Jun-20 07:20 36.081426 -93.530054 286 36049ft 417kts
02-Jun-20 07:21 36.117547 -93.658387 286 36046ft 416kts
02-Jun-20 07:22 36.157306 -93.800362 286 36043ft 417kts
02-Jun-20 07:23 36.195156 -93.936211 286 36055ft 418kts
02-Jun-20 07:25 36.232923 -94.072449 286 36067ft 417kts
02-Jun-20 07:26 36.273931 -94.207333 288 36061ft 418kts
02-Jun-20 07:27 36.316541 -94.341115 288 36058ft 417kts
02-Jun-20 07:28 36.358856 -94.474566 288 36059ft 415kts
02-Jun-20 07:29 36.400871 -94.607675 288 36059ft 414kts
02-Jun-20 07:30 36.442690 -94.740778 287 36061ft 413kts
02-Jun-20 07:31 36.484168 -94.873405 287 36052ft 411kts
02-Jun-20 07:32 36.525375 -95.005776 287 36016ft 409kts
02-Jun-20 07:33 36.566216 -95.137572 287 36014ft 407kts
02-Jun-20 07:34 36.606853 -95.269325 288 36015ft 406kts
02-Jun-20 07:35 36.647043 -95.400224 288 36023ft 404kts
02-Jun-20 07:36 36.687168 -95.531523 287 36023ft 403kts
02-Jun-20 07:37 36.726539 -95.660945 287 36025ft 403kts
02-Jun-20 07:38 36.766540 -95.793049 287 36037ft 404kts
02-Jun-20 07:39 36.806056 -95.924163 287 36039ft 403kts
02-Jun-20 07:39 36.838361 -96.034110 284 36040ft 402kts
02-Jun-20 07:41 36.877430 -96.188750 284 36047ft 399kts
02-Jun-20 07:42 36.910742 -96.321249 284 36036ft 399kts
02-Jun-20 07:42 36.938344 -96.431571 284 36035ft 399kts
02-Jun-20 07:44 36.976915 -96.586563 284 36041ft 399kts
02-Jun-20 07:44 37.004345 -96.697380 284 36051ft 399kts
02-Jun-20 07:45 37.037065 -96.830220 284 36065ft 399kts
02-Jun-20 07:46 37.069599 -96.963016 284 36054ft 398kts
02-Jun-20 07:47 37.101884 -97.095517 284 36027ft 398kts
02-Jun-20 07:49 37.139564 -97.251071 284 36013ft 397kts
02-Jun-20 07:49 37.166217 -97.361706 284 36024ft 397kts
02-Jun-20 07:50 37.198078 -97.494628 284 36027ft 396kts
02-Jun-20 07:51 37.229736 -97.627433 284 36032ft 396kts
02-Jun-20 07:52 37.261218 -97.760231 284 36045ft 396kts
02-Jun-20 07:53 37.292664 -97.893621 284 36049ft 396kts
02-Jun-20 07:54 37.323782 -98.026367 284 36057ft 396kts
02-Jun-20 07:55 37.354801 -98.159428 284 36068ft 394kts
02-Jun-20 07:56 37.385517 -98.291930 284 36056ft 393kts
02-Jun-20 07:57 37.416080 -98.424520 284 36048ft 394kts
02-Jun-20 07:58 37.446495 -98.557217 284 36057ft 394kts
02-Jun-20 07:59 37.476413 -98.688496 284 36073ft 394kts
02-Jun-20 08:00 37.506567 -98.821619 284 36073ft 395kts
02-Jun-20 08:01 37.536595 -98.954822 284 36089ft 394kts
02-Jun-20 08:02 37.566429 -99.088000 284 36093ft 393kts
02-Jun-20 08:03 37.595985 -99.220719 284 36091ft 392kts
02-Jun-20 08:04 37.625325 -99.353241 285 36092ft 390kts
02-Jun-20 08:05 37.654419 -99.485418 285 36087ft 388kts
02-Jun-20 08:06 37.683187 -99.616882 285 36083ft 387kts
02-Jun-20 08:07 37.711834 -99.748556 284 36095ft 387kts
02-Jun-20 08:08 37.740287 -99.880115 285 36107ft 387kts
02-Jun-20 08:09 37.768546 -100.011552 285 36115ft 386kts
02-Jun-20 08:10 37.796584 -100.142739 285 36117ft 386kts
02-Jun-20 08:11 37.824469 -100.273991 285 36116ft 385kts
02-Jun-20 08:12 37.852335 -100.405913 284 36116ft 386kts
02-Jun-20 08:13 37.879943 -100.537408 284 36123ft 387kts
02-Jun-20 08:14 37.907447 -100.669222 284 36129ft 388kts
02-Jun-20 08:15 37.947009 -100.797420 293 36147ft 391kts
02-Jun-20 08:16 37.994645 -100.921241 293 36151ft 391kts
02-Jun-20 08:17 38.041989 -101.044797 293 36140ft 385kts
02-Jun-20 08:18 38.088731 -101.167261 293 36140ft 385kts
02-Jun-20 08:19 38.135451 -101.290152 293 36141ft 386kts
02-Jun-20 08:20 38.182080 -101.413296 293 36140ft 386kts
02-Jun-20 08:21 38.240024 -101.529275 300 36140ft 389kts
02-Jun-20 08:22 38.301364 -101.642806 300 36133ft 389kts
02-Jun-20 08:23 38.362863 -101.756865 300 36139ft 390kts
02-Jun-20 08:24 38.424411 -101.871196 300 36137ft 389kts
02-Jun-20 08:25 38.485845 -101.985480 300 36130ft 389kts
02-Jun-20 08:26 38.547159 -102.099699 300 36133ft 389kts
02-Jun-20 08:27 38.608413 -102.214026 300 36155ft 388kts
02-Jun-20 08:28 38.669593 -102.328444 300 36154ft 388kts
02-Jun-20 08:29 38.730737 -102.443041 300 36151ft 388kts
02-Jun-20 08:30 38.791830 -102.557206 304 36155ft 389kts
02-Jun-20 08:31 38.851547 -102.671872 295 36170ft 387kts
02-Jun-20 08:32 38.903807 -102.793361 295 36168ft 386kts
02-Jun-20 08:33 38.955744 -102.914690 295 36160ft 386kts
02-Jun-20 08:34 39.007171 -103.035309 295 35641ft 383kts
02-Jun-20 08:35 39.058865 -103.157023 295 32435ft 394kts
02-Jun-20 08:36 39.112389 -103.283539 295 28393ft 415kts
02-Jun-20 08:37 39.169256 -103.418514 295 23769ft 437kts
02-Jun-20 08:38 39.225725 -103.553221 295 21103ft 414kts
02-Jun-20 08:39 39.278788 -103.680236 296 18587ft 391kts
02-Jun-20 08:40 39.336758 -103.794027 301 16860ft 355kts
02-Jun-20 08:41 39.388754 -103.892684 305 16203ft 311kts
02-Jun-20 08:42 39.435458 -103.982767 296 15698ft 299kts
02-Jun-20 08:43 39.438515 -104.089594 269 14377ft 295kts
02-Jun-20 08:44 39.434723 -104.194687 269 12996ft 288kts
02-Jun-20 08:45 39.431096 -104.294086 270 12328ft 257kts
02-Jun-20 08:46 39.427839 -104.383002 270 11688ft 243kts
02-Jun-20 08:47 39.424731 -104.470694 271 10675ft 242kts
02-Jun-20 08:48 39.440684 -104.549573 309 9677ft 228kts
02-Jun-20 08:49 39.479257 -104.611634 315 9143ft 209kts
02-Jun-20 08:50 39.537089 -104.643829 356 9129ft 233kts
02-Jun-20 08:51 39.601854 -104.644537 0 9085ft 232kts
02-Jun-20 08:52 39.666603 -104.643756 1 8636ft 231kts
02-Jun-20 08:53 39.731090 -104.642947 1 7418ft 235kts
02-Jun-20 08:54 39.796960 -104.642139 0 6165ft 237kts
02-Jun-20 08:55 39.857187 -104.641385 1 5444ft 170kts
02-Jun-20 08:56 39.871375 -104.640894 316 5443ft 0kts

Navigation Log

Ident Type
Flight plan parsing failed, navigation log unavailable